sensor_id;sensor_type;location;lat;lon;timestamp;P1;durP1;ratioP1;P2;durP2;ratioP2
58512;SDS011;44302;47.914;10.642;2023-04-30T05:20:42;12.37;;;8.13;;
58512;SDS011;44302;47.914;10.642;2023-04-30T05:27:28;13.77;;;9.27;;
58512;SDS011;44302;47.914;10.642;2023-04-30T05:33:37;15.27;;;9.53;;
58512;SDS011;44302;47.914;10.642;2023-04-30T05:38:44;11.83;;;8.83;;
58512;SDS011;44302;47.914;10.642;2023-04-30T05:42:56;10.73;;;8.93;;
58512;SDS011;44302;47.914;10.642;2023-04-30T05:47:10;10.57;;;8.40;;
58512;SDS011;44302;47.914;10.642;2023-04-30T05:52:45;15.00;;;8.30;;
58512;SDS011;44302;47.914;10.642;2023-04-30T05:58:54;10.43;;;7.03;;
58512;SDS011;44302;47.914;10.642;2023-04-30T06:03:02;12.70;;;8.10;;
58512;SDS011;44302;47.914;10.642;2023-04-30T06:06:46;8.63;;;7.40;;
58512;SDS011;44302;47.914;10.642;2023-04-30T06:11:59;10.65;;;8.85;;
58512;SDS011;44302;47.914;10.642;2023-04-30T06:16:42;9.00;;;7.13;;
58512;SDS011;44302;47.914;10.642;2023-04-30T06:21:25;9.27;;;7.93;;
58512;SDS011;44302;47.914;10.642;2023-04-30T06:24:57;9.23;;;7.33;;
58512;SDS011;44302;47.914;10.642;2023-04-30T06:28:49;10.13;;;7.73;;
58512;SDS011;44302;47.914;10.642;2023-04-30T06:33:11;9.57;;;6.57;;
58512;SDS011;44302;47.914;10.642;2023-04-30T06:37:41;8.10;;;6.67;;
58512;SDS011;44302;47.914;10.642;2023-04-30T06:41:55;9.37;;;6.73;;
58512;SDS011;44302;47.914;10.642;2023-04-30T06:45:53;13.47;;;7.00;;
58512;SDS011;44302;47.914;10.642;2023-04-30T06:49:53;8.97;;;6.80;;
58512;SDS011;44302;47.914;10.642;2023-04-30T06:53:51;7.67;;;6.33;;
58512;SDS011;44302;47.914;10.642;2023-04-30T06:56:17;7.77;;;6.37;;
58512;SDS011;44302;47.914;10.642;2023-04-30T06:59:56;9.27;;;5.90;;
58512;SDS011;44302;47.914;10.642;2023-04-30T07:04:04;9.00;;;6.90;;
58512;SDS011;44302;47.914;10.642;2023-04-30T07:07:54;9.70;;;7.07;;
58512;SDS011;44302;47.914;10.642;2023-04-30T07:12:51;9.70;;;7.10;;
58512;SDS011;44302;47.914;10.642;2023-04-30T07:15:17;8.53;;;6.70;;
58512;SDS011;44302;47.914;10.642;2023-04-30T07:17:43;8.63;;;6.67;;
58512;SDS011;44302;47.914;10.642;2023-04-30T07:20:11;8.70;;;6.57;;
58512;SDS011;44302;47.914;10.642;2023-04-30T07:22:38;8.20;;;6.60;;
58512;SDS011;44302;47.914;10.642;2023-04-30T07:25:05;7.87;;;6.97;;
58512;SDS011;44302;47.914;10.642;2023-04-30T07:27:31;9.53;;;6.93;;
58512;SDS011;44302;47.914;10.642;2023-04-30T07:29:56;11.03;;;6.53;;
58512;SDS011;44302;47.914;10.642;2023-04-30T07:32:22;8.30;;;7.10;;
58512;SDS011;44302;47.914;10.642;2023-04-30T07:34:51;11.60;;;6.83;;
58512;SDS011;44302;47.914;10.642;2023-04-30T07:37:17;7.47;;;6.27;;
58512;SDS011;44302;47.914;10.642;2023-04-30T07:39:43;6.97;;;6.00;;
58512;SDS011;44302;47.914;10.642;2023-04-30T07:42:09;6.60;;;5.57;;
58512;SDS011;44302;47.914;10.642;2023-04-30T07:44:35;6.83;;;5.43;;
58512;SDS011;44302;47.914;10.642;2023-04-30T07:47:01;7.17;;;6.13;;
58512;SDS011;44302;47.914;10.642;2023-04-30T07:49:27;6.37;;;5.40;;
58512;SDS011;44302;47.914;10.642;2023-04-30T07:51:53;8.13;;;5.37;;
58512;SDS011;44302;47.914;10.642;2023-04-30T07:54:18;6.57;;;5.43;;
58512;SDS011;44302;47.914;10.642;2023-04-30T07:56:44;5.63;;;5.03;;
58512;SDS011;44302;47.914;10.642;2023-04-30T07:59:10;6.17;;;5.50;;
58512;SDS011;44302;47.914;10.642;2023-04-30T08:01:35;5.83;;;5.10;;
58512;SDS011;44302;47.914;10.642;2023-04-30T08:04:01;7.13;;;5.30;;
58512;SDS011;44302;47.914;10.642;2023-04-30T08:06:27;6.03;;;5.00;;
58512;SDS011;44302;47.914;10.642;2023-04-30T08:08:52;5.27;;;4.73;;
58512;SDS011;44302;47.914;10.642;2023-04-30T08:11:18;4.80;;;4.40;;
58512;SDS011;44302;47.914;10.642;2023-04-30T08:13:44;5.30;;;4.57;;
58512;SDS011;44302;47.914;10.642;2023-04-30T08:16:10;5.20;;;4.70;;
58512;SDS011;44302;47.914;10.642;2023-04-30T08:18:36;5.50;;;4.77;;
58512;SDS011;44302;47.914;10.642;2023-04-30T08:21:03;5.07;;;4.50;;
58512;SDS011;44302;47.914;10.642;2023-04-30T08:23:29;5.47;;;4.90;;
58512;SDS011;44302;47.914;10.642;2023-04-30T08:25:55;4.63;;;4.13;;
58512;SDS011;44302;47.914;10.642;2023-04-30T08:28:21;4.73;;;4.30;;
58512;SDS011;44302;47.914;10.642;2023-04-30T08:30:46;5.13;;;4.33;;
58512;SDS011;44302;47.914;10.642;2023-04-30T08:33:12;5.17;;;4.67;;
58512;SDS011;44302;47.914;10.642;2023-04-30T08:35:38;5.20;;;4.63;;
58512;SDS011;44302;47.914;10.642;2023-04-30T08:38:04;4.87;;;4.17;;
58512;SDS011;44302;47.914;10.642;2023-04-30T08:40:30;5.37;;;4.13;;
58512;SDS011;44302;47.914;10.642;2023-04-30T08:43:03;5.53;;;4.67;;
58512;SDS011;44302;47.914;10.642;2023-04-30T08:45:33;5.53;;;4.57;;
58512;SDS011;44302;47.914;10.642;2023-04-30T08:48:03;4.80;;;4.30;;
58512;SDS011;44302;47.914;10.642;2023-04-30T08:50:29;5.40;;;4.33;;
58512;SDS011;44302;47.914;10.642;2023-04-30T08:52:59;5.33;;;3.80;;
58512;SDS011;44302;47.914;10.642;2023-04-30T08:55:27;5.47;;;3.30;;
58512;SDS011;44302;47.914;10.642;2023-04-30T08:57:53;4.33;;;3.70;;
58512;SDS011;44302;47.914;10.642;2023-04-30T09:00:18;3.30;;;3.00;;
58512;SDS011;44302;47.914;10.642;2023-04-30T09:02:44;4.80;;;3.43;;
58512;SDS011;44302;47.914;10.642;2023-04-30T09:05:12;4.50;;;3.70;;
58512;SDS011;44302;47.914;10.642;2023-04-30T09:07:42;4.03;;;3.40;;
58512;SDS011;44302;47.914;10.642;2023-04-30T09:10:19;5.80;;;4.03;;
58512;SDS011;44302;47.914;10.642;2023-04-30T09:13:03;4.13;;;3.73;;
58512;SDS011;44302;47.914;10.642;2023-04-30T09:15:31;5.43;;;4.00;;
58512;SDS011;44302;47.914;10.642;2023-04-30T09:18:05;3.90;;;3.50;;
58512;SDS011;44302;47.914;10.642;2023-04-30T09:20:32;3.40;;;3.10;;
58512;SDS011;44302;47.914;10.642;2023-04-30T09:23:09;3.20;;;2.90;;
58512;SDS011;44302;47.914;10.642;2023-04-30T09:25:39;3.67;;;3.17;;
58512;SDS011;44302;47.914;10.642;2023-04-30T09:28:06;4.30;;;3.03;;
58512;SDS011;44302;47.914;10.642;2023-04-30T09:30:33;3.10;;;2.83;;
58512;SDS011;44302;47.914;10.642;2023-04-30T09:32:59;4.03;;;3.33;;
58512;SDS011;44302;47.914;10.642;2023-04-30T09:35:31;3.33;;;3.03;;
58512;SDS011;44302;47.914;10.642;2023-04-30T09:37:59;4.73;;;3.43;;
58512;SDS011;44302;47.914;10.642;2023-04-30T09:40:33;3.30;;;3.00;;
58512;SDS011;44302;47.914;10.642;2023-04-30T09:43:00;4.60;;;3.60;;
58512;SDS011;44302;47.914;10.642;2023-04-30T09:45:26;3.43;;;3.13;;
58512;SDS011;44302;47.914;10.642;2023-04-30T09:48:02;4.13;;;3.73;;
58512;SDS011;44302;47.914;10.642;2023-04-30T09:50:31;3.50;;;3.13;;
58512;SDS011;44302;47.914;10.642;2023-04-30T09:53:05;3.67;;;3.30;;
58512;SDS011;44302;47.914;10.642;2023-04-30T09:55:33;4.33;;;3.30;;
58512;SDS011;44302;47.914;10.642;2023-04-30T09:58:04;4.50;;;3.93;;
58512;SDS011;44302;47.914;10.642;2023-04-30T10:00:34;3.90;;;3.50;;
58512;SDS011;44302;47.914;10.642;2023-04-30T10:03:04;3.77;;;3.33;;
58512;SDS011;44302;47.914;10.642;2023-04-30T10:05:44;4.77;;;3.23;;
58512;SDS011;44302;47.914;10.642;2023-04-30T10:10:49;3.80;;;3.50;;
58512;SDS011;44302;47.914;10.642;2023-04-30T10:13:21;3.17;;;2.87;;
58512;SDS011;44302;47.914;10.642;2023-04-30T10:15:50;5.43;;;2.97;;
58512;SDS011;44302;47.914;10.642;2023-04-30T10:18:19;3.23;;;2.93;;
58512;SDS011;44302;47.914;10.642;2023-04-30T10:20:50;3.70;;;3.30;;
58512;SDS011;44302;47.914;10.642;2023-04-30T10:23:19;4.13;;;3.07;;
58512;SDS011;44302;47.914;10.642;2023-04-30T10:25:46;3.90;;;3.47;;
58512;SDS011;44302;47.914;10.642;2023-04-30T10:28:12;3.27;;;2.90;;
58512;SDS011;44302;47.914;10.642;2023-04-30T10:30:39;4.43;;;3.03;;
58512;SDS011;44302;47.914;10.642;2023-04-30T10:38:21;2.67;;;2.47;;
58512;SDS011;44302;47.914;10.642;2023-04-30T10:40:49;2.73;;;2.53;;
58512;SDS011;44302;47.914;10.642;2023-04-30T10:43:18;4.30;;;2.63;;
58512;SDS011;44302;47.914;10.642;2023-04-30T10:45:46;2.50;;;2.30;;
58512;SDS011;44302;47.914;10.642;2023-04-30T10:48:13;2.63;;;2.37;;
58512;SDS011;44302;47.914;10.642;2023-04-30T10:50:41;2.77;;;2.53;;
58512;SDS011;44302;47.914;10.642;2023-04-30T10:53:11;3.90;;;2.70;;
58512;SDS011;44302;47.914;10.642;2023-04-30T10:55:57;2.63;;;2.40;;
58512;SDS011;44302;47.914;10.642;2023-04-30T10:58:25;3.07;;;2.40;;
58512;SDS011;44302;47.914;10.642;2023-04-30T11:01:02;2.57;;;2.37;;
58512;SDS011;44302;47.914;10.642;2023-04-30T11:03:33;3.13;;;2.00;;
58512;SDS011;44302;47.914;10.642;2023-04-30T11:06:00;3.00;;;2.13;;
58512;SDS011;44302;47.914;10.642;2023-04-30T11:08:37;2.23;;;2.03;;
58512;SDS011;44302;47.914;10.642;2023-04-30T11:11:03;3.43;;;2.90;;
58512;SDS011;44302;47.914;10.642;2023-04-30T11:13:45;2.80;;;2.50;;
58512;SDS011;44302;47.914;10.642;2023-04-30T11:16:15;2.63;;;2.43;;
58512;SDS011;44302;47.914;10.642;2023-04-30T11:18:42;2.30;;;2.10;;
58512;SDS011;44302;47.914;10.642;2023-04-30T11:21:09;2.30;;;2.10;;
58512;SDS011;44302;47.914;10.642;2023-04-30T11:23:35;2.50;;;2.20;;
58512;SDS011;44302;47.914;10.642;2023-04-30T11:26:01;2.50;;;2.30;;
58512;SDS011;44302;47.914;10.642;2023-04-30T11:28:27;4.03;;;2.47;;
58512;SDS011;44302;47.914;10.642;2023-04-30T11:30:57;2.60;;;2.40;;
58512;SDS011;44302;47.914;10.642;2023-04-30T11:33:28;3.00;;;2.70;;
58512;SDS011;44302;47.914;10.642;2023-04-30T11:35:55;2.97;;;2.67;;
58512;SDS011;44302;47.914;10.642;2023-04-30T11:38:25;2.93;;;2.63;;
58512;SDS011;44302;47.914;10.642;2023-04-30T11:40:59;3.10;;;2.80;;
58512;SDS011;44302;47.914;10.642;2023-04-30T11:43:26;3.30;;;3.00;;
58512;SDS011;44302;47.914;10.642;2023-04-30T11:48:38;2.80;;;2.60;;
58512;SDS011;44302;47.914;10.642;2023-04-30T11:53:43;2.73;;;2.53;;
58512;SDS011;44302;47.914;10.642;2023-04-30T11:56:17;2.53;;;2.33;;
58512;SDS011;44302;47.914;10.642;2023-04-30T11:58:48;2.77;;;2.47;;
58512;SDS011;44302;47.914;10.642;2023-04-30T12:01:15;2.13;;;1.93;;
58512;SDS011;44302;47.914;10.642;2023-04-30T12:03:45;2.23;;;2.03;;
58512;SDS011;44302;47.914;10.642;2023-04-30T12:06:22;2.47;;;2.27;;
58512;SDS011;44302;47.914;10.642;2023-04-30T12:08:53;2.50;;;2.30;;
58512;SDS011;44302;47.914;10.642;2023-04-30T12:11:23;2.30;;;2.10;;
58512;SDS011;44302;47.914;10.642;2023-04-30T12:13:53;2.70;;;2.50;;
58512;SDS011;44302;47.914;10.642;2023-04-30T12:16:21;2.93;;;2.57;;
58512;SDS011;44302;47.914;10.642;2023-04-30T12:18:50;2.90;;;2.20;;
58512;SDS011;44302;47.914;10.642;2023-04-30T12:21:16;2.90;;;2.60;;
58512;SDS011;44302;47.914;10.642;2023-04-30T12:23:42;5.83;;;2.50;;
58512;SDS011;44302;47.914;10.642;2023-04-30T12:26:09;2.33;;;2.13;;
58512;SDS011;44302;47.914;10.642;2023-04-30T12:28:35;2.50;;;2.30;;
58512;SDS011;44302;47.914;10.642;2023-04-30T12:31:00;2.47;;;2.27;;
58512;SDS011;44302;47.914;10.642;2023-04-30T12:33:29;2.40;;;2.20;;
58512;SDS011;44302;47.914;10.642;2023-04-30T12:35:55;2.23;;;2.00;;
58512;SDS011;44302;47.914;10.642;2023-04-30T12:38:24;2.63;;;2.07;;
58512;SDS011;44302;47.914;10.642;2023-04-30T12:40:50;2.23;;;2.03;;
58512;SDS011;44302;47.914;10.642;2023-04-30T12:43:16;2.40;;;2.20;;
58512;SDS011;44302;47.914;10.642;2023-04-30T12:45:52;2.20;;;2.00;;
58512;SDS011;44302;47.914;10.642;2023-04-30T12:48:20;2.67;;;2.27;;
58512;SDS011;44302;47.914;10.642;2023-04-30T12:50:54;3.13;;;2.83;;
58512;SDS011;44302;47.914;10.642;2023-04-30T12:53:23;2.27;;;2.07;;
58512;SDS011;44302;47.914;10.642;2023-04-30T12:58:39;2.50;;;2.30;;
58512;SDS011;44302;47.914;10.642;2023-04-30T13:01:09;2.40;;;2.20;;
58512;SDS011;44302;47.914;10.642;2023-04-30T13:03:36;3.30;;;3.00;;
58512;SDS011;44302;47.914;10.642;2023-04-30T13:06:02;2.63;;;2.43;;
58512;SDS011;44302;47.914;10.642;2023-04-30T13:08:29;2.83;;;2.63;;
58512;SDS011;44302;47.914;10.642;2023-04-30T13:10:54;2.67;;;2.47;;
58512;SDS011;44302;47.914;10.642;2023-04-30T13:13:20;2.70;;;2.50;;
58512;SDS011;44302;47.914;10.642;2023-04-30T13:15:46;2.63;;;2.43;;
58512;SDS011;44302;47.914;10.642;2023-04-30T13:18:12;3.00;;;2.77;;
58512;SDS011;44302;47.914;10.642;2023-04-30T13:20:39;3.33;;;3.00;;
58512;SDS011;44302;47.914;10.642;2023-04-30T13:23:05;3.20;;;2.40;;
58512;SDS011;44302;47.914;10.642;2023-04-30T13:25:31;2.23;;;2.03;;
58512;SDS011;44302;47.914;10.642;2023-04-30T13:27:58;9.67;;;4.63;;
58512;SDS011;44302;47.914;10.642;2023-04-30T13:30:24;4.00;;;3.30;;
58512;SDS011;44302;47.914;10.642;2023-04-30T13:32:50;3.33;;;2.87;;
58512;SDS011;44302;47.914;10.642;2023-04-30T13:35:16;2.60;;;2.40;;
58512;SDS011;44302;47.914;10.642;2023-04-30T13:37:44;3.27;;;2.10;;
58512;SDS011;44302;47.914;10.642;2023-04-30T13:40:13;2.53;;;2.30;;
58512;SDS011;44302;47.914;10.642;2023-04-30T13:42:40;5.53;;;2.57;;
58512;SDS011;44302;47.914;10.642;2023-04-30T13:45:07;3.90;;;2.13;;
58512;SDS011;44302;47.914;10.642;2023-04-30T13:47:33;3.13;;;2.20;;
58512;SDS011;44302;47.914;10.642;2023-04-30T13:49:59;2.70;;;2.50;;
58512;SDS011;44302;47.914;10.642;2023-04-30T13:52:26;2.53;;;2.33;;
58512;SDS011;44302;47.914;10.642;2023-04-30T13:54:51;3.43;;;2.30;;
58512;SDS011;44302;47.914;10.642;2023-04-30T13:57:17;2.50;;;2.30;;
58512;SDS011;44302;47.914;10.642;2023-04-30T13:59:43;2.80;;;2.40;;
58512;SDS011;44302;47.914;10.642;2023-04-30T14:02:08;2.83;;;2.53;;
58512;SDS011;44302;47.914;10.642;2023-04-30T14:04:34;2.70;;;2.50;;
58512;SDS011;44302;47.914;10.642;2023-04-30T14:07:02;2.57;;;2.37;;
58512;SDS011;44302;47.914;10.642;2023-04-30T14:09:28;3.00;;;2.53;;
58512;SDS011;44302;47.914;10.642;2023-04-30T14:11:54;2.60;;;2.40;;
58512;SDS011;44302;47.914;10.642;2023-04-30T14:14:23;2.37;;;2.17;;
58512;SDS011;44302;47.914;10.642;2023-04-30T14:16:51;3.83;;;2.50;;
58512;SDS011;44302;47.914;10.642;2023-04-30T14:19:18;2.63;;;2.27;;
58512;SDS011;44302;47.914;10.642;2023-04-30T14:21:44;2.70;;;2.50;;
58512;SDS011;44302;47.914;10.642;2023-04-30T14:24:10;2.20;;;2.00;;
58512;SDS011;44302;47.914;10.642;2023-04-30T14:26:37;2.47;;;2.27;;
58512;SDS011;44302;47.914;10.642;2023-04-30T14:29:04;2.30;;;2.10;;
58512;SDS011;44302;47.914;10.642;2023-04-30T14:31:30;2.90;;;2.50;;
58512;SDS011;44302;47.914;10.642;2023-04-30T14:33:56;4.80;;;2.60;;
58512;SDS011;44302;47.914;10.642;2023-04-30T14:36:21;2.80;;;2.50;;
58512;SDS011;44302;47.914;10.642;2023-04-30T14:38:47;2.60;;;2.40;;
58512;SDS011;44302;47.914;10.642;2023-04-30T14:41:13;2.60;;;2.40;;
58512;SDS011;44302;47.914;10.642;2023-04-30T14:43:39;3.43;;;2.63;;
58512;SDS011;44302;47.914;10.642;2023-04-30T14:46:05;2.77;;;2.57;;
58512;SDS011;44302;47.914;10.642;2023-04-30T14:48:31;2.53;;;2.27;;
58512;SDS011;44302;47.914;10.642;2023-04-30T14:50:57;3.00;;;2.73;;
58512;SDS011;44302;47.914;10.642;2023-04-30T14:53:23;3.57;;;2.60;;
58512;SDS011;44302;47.914;10.642;2023-04-30T14:55:49;10.37;;;3.27;;
58512;SDS011;44302;47.914;10.642;2023-04-30T14:58:14;2.63;;;2.43;;
58512;SDS011;44302;47.914;10.642;2023-04-30T15:00:40;2.93;;;2.63;;
58512;SDS011;44302;47.914;10.642;2023-04-30T15:03:06;2.60;;;2.40;;
58512;SDS011;44302;47.914;10.642;2023-04-30T15:05:31;4.13;;;2.93;;
58512;SDS011;44302;47.914;10.642;2023-04-30T15:07:57;2.70;;;2.50;;
58512;SDS011;44302;47.914;10.642;2023-04-30T15:10:23;2.70;;;2.43;;
58512;SDS011;44302;47.914;10.642;2023-04-30T15:12:49;3.17;;;2.80;;
58512;SDS011;44302;47.914;10.642;2023-04-30T15:15:15;3.20;;;2.90;;
58512;SDS011;44302;47.914;10.642;2023-04-30T15:17:42;2.60;;;2.40;;
58512;SDS011;44302;47.914;10.642;2023-04-30T15:20:08;2.90;;;2.67;;
58512;SDS011;44302;47.914;10.642;2023-04-30T15:22:34;2.70;;;2.50;;
58512;SDS011;44302;47.914;10.642;2023-04-30T15:25:01;3.90;;;2.80;;
58512;SDS011;44302;47.914;10.642;2023-04-30T15:27:27;2.93;;;2.63;;
58512;SDS011;44302;47.914;10.642;2023-04-30T15:29:53;3.53;;;2.83;;
58512;SDS011;44302;47.914;10.642;2023-04-30T15:32:19;3.53;;;2.90;;
58512;SDS011;44302;47.914;10.642;2023-04-30T15:34:45;2.93;;;2.63;;
58512;SDS011;44302;47.914;10.642;2023-04-30T15:37:11;4.40;;;2.63;;
58512;SDS011;44302;47.914;10.642;2023-04-30T15:39:36;3.37;;;3.03;;
58512;SDS011;44302;47.914;10.642;2023-04-30T15:42:02;3.53;;;2.73;;
58512;SDS011;44302;47.914;10.642;2023-04-30T15:44:28;2.37;;;2.17;;
58512;SDS011;44302;47.914;10.642;2023-04-30T15:46:53;2.50;;;2.30;;
58512;SDS011;44302;47.914;10.642;2023-04-30T15:49:20;3.30;;;2.80;;
58512;SDS011;44302;47.914;10.642;2023-04-30T15:51:47;3.37;;;2.80;;
58512;SDS011;44302;47.914;10.642;2023-04-30T15:54:14;3.93;;;3.33;;
58512;SDS011;44302;47.914;10.642;2023-04-30T15:56:40;2.93;;;2.70;;
58512;SDS011;44302;47.914;10.642;2023-04-30T15:59:06;4.37;;;2.50;;
58512;SDS011;44302;47.914;10.642;2023-04-30T16:01:32;4.03;;;3.13;;
58512;SDS011;44302;47.914;10.642;2023-04-30T16:03:58;3.53;;;2.57;;
58512;SDS011;44302;47.914;10.642;2023-04-30T16:06:24;2.97;;;2.70;;
58512;SDS011;44302;47.914;10.642;2023-04-30T16:08:51;2.60;;;2.40;;
58512;SDS011;44302;47.914;10.642;2023-04-30T16:11:19;4.20;;;2.73;;
58512;SDS011;44302;47.914;10.642;2023-04-30T16:13:47;3.33;;;2.70;;
58512;SDS011;44302;47.914;10.642;2023-04-30T16:16:16;2.87;;;2.57;;
58512;SDS011;44302;47.914;10.642;2023-04-30T16:18:41;3.17;;;2.47;;
58512;SDS011;44302;47.914;10.642;2023-04-30T16:21:07;2.53;;;2.20;;
58512;SDS011;44302;47.914;10.642;2023-04-30T16:23:34;3.20;;;2.77;;
58512;SDS011;44302;47.914;10.642;2023-04-30T16:26:00;3.20;;;2.77;;
58512;SDS011;44302;47.914;10.642;2023-04-30T16:28:26;3.30;;;3.00;;
58512;SDS011;44302;47.914;10.642;2023-04-30T16:30:55;2.90;;;2.60;;
58512;SDS011;44302;47.914;10.642;2023-04-30T16:33:21;4.63;;;2.70;;
58512;SDS011;44302;47.914;10.642;2023-04-30T16:35:49;3.00;;;2.60;;
58512;SDS011;44302;47.914;10.642;2023-04-30T16:38:14;2.57;;;2.37;;
58512;SDS011;44302;47.914;10.642;2023-04-30T16:40:40;3.50;;;3.20;;
58512;SDS011;44302;47.914;10.642;2023-04-30T16:43:06;3.80;;;2.90;;
58512;SDS011;44302;47.914;10.642;2023-04-30T16:45:32;4.23;;;2.77;;
58512;SDS011;44302;47.914;10.642;2023-04-30T16:47:58;2.80;;;2.50;;
58512;SDS011;44302;47.914;10.642;2023-04-30T16:50:24;3.77;;;3.10;;
58512;SDS011;44302;47.914;10.642;2023-04-30T16:52:51;5.20;;;3.47;;
58512;SDS011;44302;47.914;10.642;2023-04-30T16:55:17;5.50;;;3.00;;
58512;SDS011;44302;47.914;10.642;2023-04-30T16:57:44;3.13;;;2.63;;
58512;SDS011;44302;47.914;10.642;2023-04-30T17:00:10;4.07;;;3.20;;
58512;SDS011;44302;47.914;10.642;2023-04-30T17:02:38;4.47;;;2.90;;
58512;SDS011;44302;47.914;10.642;2023-04-30T17:05:05;6.37;;;4.43;;
58512;SDS011;44302;47.914;10.642;2023-04-30T17:19:20;6.40;;;3.40;;
58512;SDS011;44302;47.914;10.642;2023-04-30T17:28:12;5.43;;;4.17;;
58512;SDS011;44302;47.914;10.642;2023-04-30T17:39:16;4.50;;;2.97;;
